Time;durP1;ratioP1;P1;durP2;ratioP2;P2;SDS_P1;SDS_P2;PMS_P1;PMS_P2;Temp;Humidity;BMP_temperature;BMP_pressure;BME280_temperature;BME280_humidity;BME280_pressure;Samples;Min_cycle;Max_cycle;Signal;HPM_P1;HPM_P2
2023/08/29 00:00:54;;;;;;;4.85;2.30;;;;;;;15.35;61.56;99404.28;10391931;28;20054;-61
2023/08/29 00:06:03;;;;;;;6.03;2.08;;;;;;;15.28;61.54;99404.97;10390221;28;20136;-61
2023/08/29 00:11:05;;;;;;;4.22;2.15;;;;;;;15.24;61.53;99403.56;10390923;28;20038;-61
2023/08/29 00:16:07;;;;;;;3.65;2.30;;;;;;;15.17;61.82;99402.41;10420892;28;20060;-61
2023/08/29 00:21:09;;;;;;;3.67;2.10;;;;;;;15.02;61.90;99394.03;10389450;28;20049;-61
2023/08/29 00:26:11;;;;;;;5.55;2.40;;;;;;;14.99;62.08;99396.94;10392779;28;20046;-61
2023/08/29 00:31:13;;;;;;;4.03;2.25;;;;;;;14.94;62.34;99403.59;10391979;28;20057;-61
2023/08/29 00:36:15;;;;;;;3.88;2.50;;;;;;;14.87;62.55;99408.53;10388486;28;20046;-61
2023/08/29 00:41:17;;;;;;;7.45;2.47;;;;;;;14.86;62.56;99403.41;10404165;28;20037;-60
2023/08/29 00:46:20;;;;;;;4.63;2.55;;;;;;;14.85;62.50;99409.63;10407034;28;20044;-60
2023/08/29 00:51:22;;;;;;;5.82;2.35;;;;;;;14.83;62.66;99411.56;10391892;28;20518;-60
2023/08/29 00:56:24;;;;;;;4.50;2.47;;;;;;;14.77;62.86;99430.50;10395528;28;20045;-60
2023/08/29 01:01:27;;;;;;;15.95;3.47;;;;;;;14.74;63.06;99438.66;10389697;28;20567;-60
2023/08/29 01:06:31;;;;;;;4.50;2.90;;;;;;;14.76;62.79;99439.38;10396718;28;20053;-60
2023/08/29 01:11:53;;;;;;;4.47;2.70;;;;;;;14.86;62.71;99435.00;10389827;28;20053;-60
2023/08/29 01:17:17;;;;;;;4.65;2.70;;;;;;;14.94;62.90;99430.72;10389145;28;20049;-60
2023/08/29 01:22:40;;;;;;;5.40;2.55;;;;;;;14.99;62.95;99444.34;10419446;28;20453;-60
2023/08/29 01:27:43;;;;;;;5.88;2.28;;;;;;;14.97;62.70;99464.72;10387510;28;20408;-60
2023/08/29 01:32:46;;;;;;;3.53;2.08;;;;;;;14.99;62.83;99464.56;10388432;28;20045;-60
2023/08/29 01:37:48;;;;;;;4.35;2.30;;;;;;;15.06;62.61;99473.63;10401257;28;20352;-62
2023/08/29 01:42:50;;;;;;;4.70;2.97;;;;;;;15.02;62.67;99475.66;10385527;28;20591;-62
2023/08/29 01:47:52;;;;;;;4.72;2.55;;;;;;;15.05;62.46;99475.44;10386415;28;20288;-60
2023/08/29 01:52:55;;;;;;;4.50;2.58;;;;;;;15.09;62.46;99465.44;10397663;28;20037;-59
2023/08/29 01:57:58;;;;;;;4.88;2.42;;;;;;;15.14;62.66;99460.63;10399999;28;20049;-59
2023/08/29 02:03:01;;;;;;;3.70;2.38;;;;;;;15.10;62.52;99467.13;10428566;28;20045;-61
2023/08/29 02:08:03;;;;;;;4.28;2.50;;;;;;;15.02;62.70;99461.69;10394579;28;20041;-59
2023/08/29 02:13:05;;;;;;;4.40;2.58;;;;;;;14.97;63.03;99440.16;10403339;28;20053;-59
2023/08/29 02:18:08;;;;;;;4.25;2.45;;;;;;;15.02;62.85;99427.47;10397390;28;20060;-59
2023/08/29 02:23:12;;;;;;;5.82;3.28;;;;;;;14.99;62.72;99415.38;10402144;28;20056;-59
2023/08/29 02:28:14;;;;;;;4.40;2.50;;;;;;;14.95;62.72;99407.88;10402754;28;20052;-59
2023/08/29 02:33:16;;;;;;;4.55;2.30;;;;;;;14.85;63.23;99407.84;10408351;28;20178;-59
2023/08/29 02:38:18;;;;;;;4.03;2.30;;;;;;;14.75;63.20;99421.91;10435818;28;20132;-60
2023/08/29 02:43:20;;;;;;;4.72;2.30;;;;;;;14.73;63.44;99411.50;10405732;28;20052;-60
2023/08/29 02:48:23;;;;;;;4.82;2.58;;;;;;;14.76;63.39;99399.91;10415398;28;20099;-60
2023/08/29 02:53:25;;;;;;;3.90;2.40;;;;;;;14.75;63.39;99383.25;10405559;28;20538;-60
2023/08/29 02:58:27;;;;;;;3.63;2.13;;;;;;;14.76;63.42;99384.09;10400069;28;20448;-60
2023/08/29 03:03:29;;;;;;;4.07;2.20;;;;;;;14.71;63.32;99373.97;10403615;28;20297;-61
2023/08/29 03:08:31;;;;;;;4.30;2.08;;;;;;;14.69;63.45;99372.41;10403000;28;20168;-61
2023/08/29 03:13:34;;;;;;;4.72;2.22;;;;;;;14.64;63.51;99374.59;10411256;28;20057;-60
2023/08/29 03:18:36;;;;;;;3.58;2.30;;;;;;;14.63;63.67;99372.94;10391471;28;20462;-60
2023/08/29 03:23:38;;;;;;;5.32;2.65;;;;;;;14.52;63.95;99365.94;10389740;28;20055;-60
2023/08/29 03:28:40;;;;;;;4.82;2.75;;;;;;;14.44;63.93;99360.47;10410475;28;20048;-60
2023/08/29 03:33:45;;;;;;;3.85;2.30;;;;;;;14.52;64.05;99343.09;10400557;28;20036;-60
2023/08/29 03:38:47;;;;;;;4.90;2.28;;;;;;;14.53;64.14;99342.13;10401626;28;20059;-60
2023/08/29 03:43:51;;;;;;;3.97;2.33;;;;;;;14.56;63.91;99339.25;10393663;28;20060;-61
2023/08/29 03:48:53;;;;;;;4.88;2.70;;;;;;;14.51;63.83;99338.78;10393903;28;20498;-61
2023/08/29 03:53:57;;;;;;;5.00;2.60;;;;;;;14.46;64.05;99343.59;10393292;28;20223;-60
2023/08/29 03:59:01;;;;;;;5.55;2.88;;;;;;;14.37;64.14;99357.50;10391074;28;20409;-60
2023/08/29 04:04:03;;;;;;;4.30;2.50;;;;;;;14.32;64.32;99362.34;10424933;28;20046;-60
2023/08/29 04:09:08;;;;;;;4.72;2.63;;;;;;;14.34;64.25;99362.22;10391139;28;20387;-60
2023/08/29 04:14:10;;;;;;;5.50;3.13;;;;;;;14.36;64.50;99370.81;10391595;28;20486;-60
2023/08/29 04:19:14;;;;;;;5.72;2.47;;;;;;;14.30;64.63;99377.44;10389905;28;20124;-60
2023/08/29 04:24:16;;;;;;;4.82;2.70;;;;;;;14.31;64.55;99379.06;10391721;28;20038;-60
2023/08/29 04:29:18;;;;;;;6.50;2.80;;;;;;;14.32;64.70;99379.91;10391339;28;20049;-61
2023/08/29 04:34:23;;;;;;;4.10;2.50;;;;;;;14.28;64.71;99374.09;10408337;28;20577;-61
2023/08/29 04:39:25;;;;;;;5.78;3.13;;;;;;;14.19;64.64;99376.63;10377560;28;20900;-62
2023/08/29 04:44:29;;;;;;;4.20;2.60;;;;;;;14.23;64.64;99373.63;10400897;28;20049;-63
2023/08/29 04:49:33;;;;;;;4.13;2.67;;;;;;;14.30;64.79;99385.31;10390872;28;20107;-62
2023/08/29 04:54:36;;;;;;;6.32;2.88;;;;;;;14.27;64.60;99382.94;10421196;28;20041;-61
2023/08/29 04:59:40;;;;;;;5.15;3.05;;;;;;;14.30;64.86;99387.94;10388572;28;20060;-61
2023/08/29 05:04:44;;;;;;;5.40;3.15;;;;;;;14.23;65.02;99386.78;10391507;28;20046;-62
2023/08/29 05:09:46;;;;;;;6.40;3.22;;;;;;;14.29;64.97;99383.63;10388118;28;20062;-61
2023/08/29 05:14:49;;;;;;;5.50;3.25;;;;;;;14.43;64.77;99380.69;10389360;28;20119;-62
2023/08/29 05:19:51;;;;;;;5.97;3.47;;;;;;;14.53;64.50;99383.41;10422964;28;20038;-61
2023/08/29 05:24:53;;;;;;;7.40;3.20;;;;;;;14.56;64.44;99370.00;10387437;28;20049;-61
2023/08/29 05:29:55;;;;;;;6.15;2.88;;;;;;;14.57;64.54;99380.38;10387964;28;20039;-61
2023/08/29 05:34:57;;;;;;;6.75;3.40;;;;;;;14.71;64.44;99376.59;10389997;28;20272;-61
2023/08/29 05:39:59;;;;;;;4.97;3.03;;;;;;;14.76;64.38;99369.13;10389902;28;20601;-61
2023/08/29 05:45:02;;;;;;;6.70;3.88;;;;;;;14.70;64.38;99369.63;10405498;28;20056;-62
2023/08/29 05:50:05;;;;;;;5.80;3.67;;;;;;;14.77;64.36;99369.97;10388383;28;20088;-61
2023/08/29 05:55:08;;;;;;;10.07;4.93;;;;;;;14.96;63.90;99368.22;10402623;28;20118;-61
2023/08/29 06:00:13;;;;;;;8.18;3.35;;;;;;;15.10;63.75;99372.31;10387785;28;20076;-61
2023/08/29 06:05:15;;;;;;;6.90;3.88;;;;;;;15.23;63.69;99370.25;10386553;28;20056;-61
2023/08/29 06:10:18;;;;;;;8.57;4.47;;;;;;;15.30;63.59;99366.97;10388175;28;20236;-60
2023/08/29 06:15:21;;;;;;;7.30;4.13;;;;;;;15.37;63.26;99367.25;10387346;28;20481;-61
2023/08/29 06:20:23;;;;;;;7.50;4.25;;;;;;;15.48;62.92;99361.88;10389794;28;20045;-61
2023/08/29 06:25:25;;;;;;;9.10;4.57;;;;;;;15.59;62.97;99367.03;10389953;28;20056;-62
2023/08/29 06:30:28;;;;;;;7.57;4.47;;;;;;;15.65;62.71;99365.69;10387774;28;20337;-62
2023/08/29 06:35:30;;;;;;;8.23;4.38;;;;;;;15.75;62.56;99362.09;10387821;28;20137;-61
2023/08/29 06:40:32;;;;;;;9.32;5.30;;;;;;;15.92;62.32;99340.28;10386714;28;20057;-62
2023/08/29 06:45:34;;;;;;;7.65;4.43;;;;;;;16.04;61.99;99360.25;10383232;28;20049;-62
2023/08/29 06:50:36;;;;;;;5.65;3.65;;;;;;;16.22;61.31;99355.94;10383517;28;20045;-62
2023/08/29 06:55:38;;;;;;;7.25;4.25;;;;;;;16.34;61.50;99363.72;10390064;28;20050;-61
2023/08/29 07:00:40;;;;;;;9.60;4.80;;;;;;;16.55;60.98;99364.41;10390067;28;20532;-60
2023/08/29 07:05:43;;;;;;;10.18;5.30;;;;;;;16.80;60.59;99372.50;10391227;28;20057;-62
2023/08/29 07:10:45;;;;;;;9.60;4.55;;;;;;;17.06;59.82;99375.31;10388171;28;20069;-62
2023/08/29 07:15:47;;;;;;;8.02;4.30;;;;;;;17.38;59.56;99375.75;10390543;28;20887;-60
2023/08/29 07:20:49;;;;;;;8.05;3.97;;;;;;;17.63;58.95;99374.19;10393579;28;20486;-62
2023/08/29 07:25:53;;;;;;;8.57;4.50;;;;;;;17.71;58.43;99377.75;10394199;28;20046;-61
2023/08/29 07:30:57;;;;;;;9.27;4.53;;;;;;;18.05;57.66;99377.91;10388630;28;20493;-62
2023/08/29 07:36:00;;;;;;;9.75;5.20;;;;;;;18.43;56.76;99380.25;10392911;28;20189;-61
2023/08/29 07:41:02;;;;;;;7.43;4.30;;;;;;;18.61;56.46;99386.31;10399188;28;20040;-62
2023/08/29 07:46:04;;;;;;;9.85;5.05;;;;;;;18.67;56.17;99381.41;10394874;28;20049;-61
2023/08/29 07:51:06;;;;;;;9.70;5.47;;;;;;;18.93;55.82;99385.66;10387885;28;20053;-61
2023/08/29 07:56:08;;;;;;;10.45;5.05;;;;;;;19.31;54.90;99390.53;10388839;28;20072;-61
2023/08/29 08:01:11;;;;;;;9.23;4.43;;;;;;;19.60;54.21;99387.47;10387763;28;20076;-61
2023/08/29 08:06:13;;;;;;;8.55;4.65;;;;;;;19.56;53.66;99398.56;10399137;28;20522;-61
2023/08/29 08:11:16;;;;;;;7.72;4.15;;;;;;;19.98;53.35;99392.22;10386990;28;20037;-61
2023/08/29 08:16:18;;;;;;;9.82;4.95;;;;;;;20.26;52.79;99396.22;10391824;28;20129;-59
2023/08/29 08:21:21;;;;;;;7.82;4.07;;;;;;;20.39;52.09;99398.38;10387368;28;20127;-60
2023/08/29 08:26:23;;;;;;;7.90;4.57;;;;;;;20.68;51.09;99401.34;10398704;28;20057;-60
2023/08/29 08:31:26;;;;;;;7.93;4.00;;;;;;;20.83;50.24;99396.16;10398337;28;20505;-60
2023/08/29 08:36:28;;;;;;;8.13;4.68;;;;;;;21.09;50.01;99410.06;10388681;28;20541;-61
2023/08/29 08:41:32;;;;;;;7.80;3.60;;;;;;;21.16;49.07;99399.56;10402017;28;20477;-60
2023/08/29 08:46:35;;;;;;;6.32;3.50;;;;;;;20.99;49.18;99404.94;10406077;28;20421;-60
2023/08/29 08:51:40;;;;;;;7.07;3.42;;;;;;;20.86;49.02;99406.47;10388398;28;20077;-60
2023/08/29 08:56:44;;;;;;;7.13;3.63;;;;;;;20.74;49.24;99403.31;10386794;28;20071;-60
2023/08/29 09:01:46;;;;;;;9.63;3.90;;;;;;;20.82;49.47;99407.81;10385662;28;20045;-60
2023/08/29 09:06:48;;;;;;;10.45;4.40;;;;;;;20.93;49.18;99407.44;10385877;28;20127;-62
2023/08/29 09:11:55;;;;;;;8.48;4.47;;;;;;;21.02;48.93;99415.25;10386042;28;20512;-59
2023/08/29 09:16:59;;;;;;;7.22;3.97;;;;;;;21.26;48.60;99416.16;10386273;28;20066;-61
2023/08/29 09:22:01;;;;;;;7.85;3.72;;;;;;;21.40;48.21;99407.47;10380289;28;20037;-60
2023/08/29 09:27:09;;;;;;;8.32;3.72;;;;;;;21.55;47.54;99409.25;10385006;28;20055;-61
2023/08/29 09:32:15;;;;;;;6.45;3.60;;;;;;;21.55;48.15;99411.91;10396791;28;20042;-62
2023/08/29 09:37:17;;;;;;;5.93;3.55;;;;;;;22.08;47.18;99407.63;10398671;28;20057;-61
2023/08/29 09:42:21;;;;;;;9.20;4.22;;;;;;;22.06;47.16;99405.16;10387573;28;20049;-61
2023/08/29 09:47:24;;;;;;;6.85;3.40;;;;;;;22.13;46.76;99408.75;10391474;28;20128;-61
2023/08/29 09:52:27;;;;;;;6.55;3.13;;;;;;;22.34;46.18;99406.25;10385182;28;20509;-61
2023/08/29 09:57:33;;;;;;;6.60;3.28;;;;;;;22.42;45.94;99408.00;10389486;28;20057;-61
2023/08/29 10:02:37;;;;;;;5.97;2.75;;;;;;;22.37;45.67;99399.75;10380929;28;20045;-61
2023/08/29 10:07:42;;;;;;;5.47;3.25;;;;;;;22.43;45.42;99391.84;10389258;28;20773;-61
2023/08/29 10:12:46;;;;;;;6.05;3.25;;;;;;;22.52;45.20;99389.94;10382665;28;20270;-60
2023/08/29 10:17:49;;;;;;;5.82;2.90;;;;;;;23.15;44.55;99376.13;10384507;28;20041;-60
2023/08/29 10:22:51;;;;;;;8.25;3.90;;;;;;;23.12;44.58;99373.84;10382522;28;20140;-60
2023/08/29 10:27:54;;;;;;;4.93;3.03;;;;;;;23.20;44.54;99369.25;10382750;28;20045;-60
2023/08/29 10:32:56;;;;;;;7.15;3.05;;;;;;;22.77;44.66;99356.75;10395803;28;21016;-60
2023/08/29 10:38:06;;;;;;;5.50;3.00;;;;;;;23.06;43.57;99355.91;10394432;28;20045;-61
2023/08/29 10:43:20;;;;;;;6.25;2.78;;;;;;;23.41;42.62;99344.50;10390111;28;20041;-59
2023/08/29 10:48:46;;;;;;;3.88;2.42;;;;;;;23.22;42.01;99342.38;10389000;28;20505;-59
2023/08/29 10:54:05;;;;;;;5.05;2.95;;;;;;;23.01;43.40;99337.78;10390267;28;20096;-59
2023/08/29 10:59:33;;;;;;;5.40;2.00;;;;;;;23.05;41.16;99331.06;10387437;28;20037;-59
2023/08/29 11:04:35;;;;;;;5.15;2.00;;;;;;;23.18;42.84;99333.91;10389089;28;20513;-60
2023/08/29 11:10:22;;;;;;;4.22;2.20;;;;;;;22.91;41.95;99337.25;10392429;28;20053;-60
2023/08/29 11:15:49;;;;;;;4.85;1.95;;;;;;;22.60;42.32;99328.56;10388338;28;20049;-60
2023/08/29 11:20:53;;;;;;;3.38;1.77;;;;;;;22.52;42.83;99321.47;10388053;28;20310;-60
2023/08/29 11:25:55;;;;;;;2.92;1.70;;;;;;;22.80;42.96;99328.88;10391444;28;20038;-60
2023/08/29 11:30:57;;;;;;;4.38;2.00;;;;;;;22.34;42.36;99331.66;10386483;28;20045;-60
2023/08/29 11:36:02;;;;;;;3.03;1.60;;;;;;;22.17;42.81;99332.00;10392193;28;20088;-59
2023/08/29 11:41:05;;;;;;;3.47;1.75;;;;;;;22.13;42.90;99323.50;10387874;28;20052;-61
2023/08/29 11:46:33;;;;;;;3.45;1.85;;;;;;;22.35;42.14;99319.16;10388765;28;20041;-61
2023/08/29 11:51:35;;;;;;;3.00;1.50;;;;;;;22.41;42.12;99329.91;10388531;28;20053;-60
2023/08/29 11:56:37;;;;;;;4.03;1.20;;;;;;;22.69;41.50;99325.63;10390365;28;20069;-60
2023/08/29 12:01:39;;;;;;;3.00;1.55;;;;;;;22.67;41.23;99317.00;10386454;28;20061;-60
2023/08/29 12:06:42;;;;;;;2.47;1.30;;;;;;;22.86;40.27;99317.47;10386776;28;20057;-61
2023/08/29 12:11:44;;;;;;;3.47;1.30;;;;;;;23.09;40.16;99318.19;10400917;28;20406;-60
2023/08/29 12:16:52;;;;;;;2.10;1.35;;;;;;;23.16;39.19;99319.09;10383566;28;20076;-60
2023/08/29 12:21:55;;;;;;;9.27;2.65;;;;;;;22.24;42.41;99312.44;10388372;28;20044;-60
2023/08/29 12:26:57;;;;;;;2.83;1.50;;;;;;;21.58;43.48;99312.25;10386361;28;20064;-60
2023/08/29 12:32:00;;;;;;;4.40;1.75;;;;;;;21.56;44.24;99296.47;10386065;28;20059;-60
2023/08/29 12:37:03;;;;;;;4.30;1.55;;;;;;;21.91;43.64;99292.38;10390694;28;20413;-61
2023/08/29 12:42:05;;;;;;;3.95;1.92;;;;;;;22.17;43.45;99284.06;10385525;28;20156;-61
2023/08/29 12:47:08;;;;;;;2.65;1.30;;;;;;;22.42;41.05;99278.28;10388927;28;20057;-61
2023/08/29 12:52:13;;;;;;;2.90;1.30;;;;;;;22.69;41.31;99275.00;10400941;28;20045;-61
2023/08/29 12:57:15;;;;;;;2.53;1.35;;;;;;;22.59;41.29;99277.09;10385809;28;20060;-61
2023/08/29 13:02:17;;;;;;;2.15;1.33;;;;;;;22.49;40.87;99276.56;10396069;28;20044;-61
2023/08/29 13:07:19;;;;;;;2.33;1.15;;;;;;;22.08;41.94;99285.13;10393024;28;20053;-61
2023/08/29 13:12:22;;;;;;;2.55;1.33;;;;;;;21.31;43.77;99291.47;10382937;28;20304;-61
2023/08/29 13:17:24;;;;;;;5.50;1.45;;;;;;;21.33;44.42;99287.66;10396178;28;20049;-60
2023/08/29 13:22:27;;;;;;;3.28;1.33;;;;;;;21.40;43.93;99290.44;10385433;28;20147;-61
2023/08/29 13:27:29;;;;;;;2.30;1.17;;;;;;;20.97;44.84;99305.91;10386801;28;20045;-61
2023/08/29 13:32:35;;;;;;;4.10;1.20;;;;;;;19.73;48.39;99331.28;10383006;28;20557;-61
2023/08/29 13:37:37;;;;;;;4.03;1.30;;;;;;;17.84;53.30;99341.19;10384938;28;20049;-61
2023/08/29 13:42:41;;;;;;;1.45;0.85;;;;;;;17.28;54.96;99350.31;10386077;28;20053;-61
2023/08/29 13:47:44;;;;;;;2.55;1.25;;;;;;;16.39;57.97;99349.09;10385172;28;20514;-61
2023/08/29 13:52:49;;;;;;;2.00;1.10;;;;;;;16.67;57.28;99344.78;10395958;28;20049;-60
2023/08/29 13:57:51;;;;;;;1.63;0.82;;;;;;;17.31;56.40;99342.09;10388689;28;20132;-60
2023/08/29 14:02:53;;;;;;;2.30;1.23;;;;;;;17.92;57.14;99335.13;10383892;28;20636;-60
2023/08/29 14:07:55;;;;;;;1.38;1.20;;;;;;;17.96;56.73;99338.28;10397416;28;20045;-61
2023/08/29 14:12:58;;;;;;;2.33;1.40;;;;;;;18.16;57.16;99345.06;10411308;28;20057;-61
2023/08/29 14:18:02;;;;;;;2.90;1.40;;;;;;;18.37;57.24;99353.53;10397673;28;20725;-61
2023/08/29 14:23:05;;;;;;;2.70;1.25;;;;;;;18.39;57.15;99362.16;10389988;28;20060;-60
2023/08/29 14:28:07;;;;;;;1.98;1.20;;;;;;;18.61;55.64;99353.69;10409568;28;20366;-60
2023/08/29 14:33:11;;;;;;;2.13;1.27;;;;;;;18.55;54.82;99351.69;10390928;28;20100;-60
2023/08/29 14:38:16;;;;;;;3.70;1.50;;;;;;;18.38;55.62;99350.72;10393987;28;20725;-61
2023/08/29 14:43:18;;;;;;;3.13;1.15;;;;;;;18.60;56.51;99344.94;10389203;28;20545;-61
2023/08/29 14:48:23;;;;;;;2.58;1.30;;;;;;;19.10;55.04;99338.91;10393788;28;21521;-60
2023/08/29 14:53:28;;;;;;;1.80;1.13;;;;;;;19.06;53.53;99340.22;10395183;28;20053;-60
2023/08/29 14:58:32;;;;;;;1.27;0.90;;;;;;;18.95;53.10;99333.34;10389397;28;20068;-61
2023/08/29 15:03:37;;;;;;;2.00;1.10;;;;;;;19.02;55.01;99326.47;10424101;28;20056;-60
2023/08/29 15:08:39;;;;;;;3.00;1.10;;;;;;;19.34;54.73;99331.88;10390594;28;20049;-60
2023/08/29 15:13:43;;;;;;;1.88;1.10;;;;;;;19.62;54.78;99321.81;10405815;28;20061;-60
2023/08/29 15:18:46;;;;;;;2.97;1.20;;;;;;;19.80;54.15;99329.63;10386985;28;20048;-60
2023/08/29 15:23:49;;;;;;;1.33;1.10;;;;;;;19.78;54.19;99335.13;10391158;28;20505;-61
2023/08/29 15:28:53;;;;;;;2.58;1.08;;;;;;;19.60;54.00;99333.59;10389259;28;20123;-60
2023/08/29 15:33:58;;;;;;;1.48;1.00;;;;;;;19.80;54.53;99330.47;10389047;28;20052;-60
2023/08/29 15:39:04;;;;;;;2.65;1.00;;;;;;;20.08;54.65;99325.69;10387363;28;20052;-60
2023/08/29 15:44:06;;;;;;;1.98;1.20;;;;;;;19.96;54.69;99325.19;10388912;28;20408;-60
2023/08/29 15:49:08;;;;;;;0.93;0.80;;;;;;;20.04;54.34;99319.88;10386400;28;20126;-60
2023/08/29 15:54:12;;;;;;;1.60;1.02;;;;;;;20.21;53.96;99318.06;10396149;28;20053;-60
2023/08/29 15:59:15;;;;;;;1.83;1.10;;;;;;;20.20;54.00;99309.25;10423551;28;20087;-61
2023/08/29 16:04:19;;;;;;;1.52;1.00;;;;;;;20.18;53.16;99307.75;10386884;28;20126;-61
2023/08/29 16:09:30;;;;;;;1.37;0.93;;;;;;;20.15;53.30;99306.25;10421496;28;20406;-60
2023/08/29 16:14:33;;;;;;;2.63;1.40;;;;;;;20.15;52.55;99310.75;10402082;28;20065;-60
2023/08/29 16:19:35;;;;;;;2.10;0.90;;;;;;;20.10;52.90;99302.47;10392762;28;20041;-60
2023/08/29 16:24:37;;;;;;;1.52;1.10;;;;;;;19.85;52.88;99301.63;10390085;28;20046;-61
2023/08/29 16:29:40;;;;;;;1.13;1.00;;;;;;;19.63;53.54;99312.03;10387353;28;20041;-60
2023/08/29 16:34:44;;;;;;;1.38;1.00;;;;;;;19.54;53.90;99316.50;10388048;28;20043;-60
2023/08/29 16:39:46;;;;;;;3.33;1.02;;;;;;;19.39;54.74;99324.28;10384767;28;20489;-61
2023/08/29 16:44:48;;;;;;;0.77;0.77;;;;;;;19.09;55.43;99330.16;10390592;28;20052;-60
2023/08/29 16:49:50;;;;;;;1.52;1.10;;;;;;;18.89;56.46;99331.31;10387306;28;20059;-61
2023/08/29 16:54:54;;;;;;;1.48;0.95;;;;;;;18.86;57.17;99336.97;10387258;28;20140;-62
2023/08/29 16:59:59;;;;;;;1.27;0.90;;;;;;;18.86;57.18;99325.53;10388498;28;20068;-62
2023/08/29 17:05:01;;;;;;;1.75;1.05;;;;;;;18.72;57.78;99324.31;10386998;28;20045;-61
2023/08/29 17:10:05;;;;;;;1.67;1.10;;;;;;;18.75;57.57;99326.63;10415661;28;20260;-60
2023/08/29 17:15:08;;;;;;;1.73;0.90;;;;;;;18.87;57.65;99324.56;10401025;28;20061;-62
2023/08/29 17:20:12;;;;;;;2.03;1.15;;;;;;;18.94;56.71;99326.41;10385065;28;20044;-62
2023/08/29 17:25:15;;;;;;;3.35;1.40;;;;;;;18.93;56.73;99323.91;10386741;28;20049;-62
2023/08/29 17:30:19;;;;;;;1.23;0.90;;;;;;;18.83;56.64;99324.00;10385277;28;20041;-61
2023/08/29 17:35:22;;;;;;;2.95;0.80;;;;;;;18.77;57.48;99319.34;10405501;28;20413;-61
2023/08/29 17:40:29;;;;;;;1.30;1.00;;;;;;;18.61;58.35;99325.41;10385364;28;20049;-61
2023/08/29 17:45:36;;;;;;;1.75;1.10;;;;;;;18.41;58.98;99331.06;10391999;28;20139;-61
2023/08/29 17:50:39;;;;;;;2.90;1.40;;;;;;;18.24;59.13;99329.31;10380686;28;20069;-62
2023/08/29 17:55:41;;;;;;;1.23;0.90;;;;;;;18.09;59.39;99338.75;10390225;28;20052;-61
2023/08/29 18:00:44;;;;;;;1.00;0.90;;;;;;;17.84;59.91;99335.06;10390659;28;20575;-61
2023/08/29 18:05:51;;;;;;;1.52;1.00;;;;;;;17.64;59.86;99344.97;10385518;28;20148;-61
2023/08/29 18:11:04;;;;;;;1.92;1.13;;;;;;;17.44;60.41;99353.19;10383970;28;20414;-62
2023/08/29 18:16:12;;;;;;;2.47;1.40;;;;;;;17.29;60.85;99352.81;10384820;28;20111;-61
2023/08/29 18:21:16;;;;;;;2.38;1.20;;;;;;;17.15;60.94;99353.31;10393340;28;20045;-62
2023/08/29 18:26:21;;;;;;;1.38;0.98;;;;;;;16.87;61.22;99359.56;10415686;28;20053;-62
2023/08/29 18:31:24;;;;;;;1.15;1.05;;;;;;;16.61;61.68;99353.28;10389755;28;20044;-64
2023/08/29 18:36:27;;;;;;;1.67;0.98;;;;;;;16.47;61.92;99356.38;10383365;28;20041;-61
2023/08/29 18:41:31;;;;;;;1.88;1.02;;;;;;;16.46;62.18;99359.97;10382399;28;20054;-62
2023/08/29 18:46:36;;;;;;;1.55;1.17;;;;;;;16.39;62.49;99367.56;10404601;28;20053;-62
2023/08/29 18:51:39;;;;;;;3.45;1.20;;;;;;;16.37;62.42;99366.88;10391664;28;20049;-63
2023/08/29 18:56:41;;;;;;;3.90;1.27;;;;;;;16.36;62.52;99364.41;10390835;28;20049;-61
2023/08/29 19:01:44;;;;;;;3.45;1.33;;;;;;;16.35;62.58;99365.34;10397407;28;20195;-62
2023/08/29 19:06:47;;;;;;;4.18;2.00;;;;;;;16.28;63.04;99377.47;10397143;28;20469;-61
2023/08/29 19:11:51;;;;;;;3.42;1.60;;;;;;;16.23;62.70;99376.09;10393904;28;20401;-61
2023/08/29 19:16:54;;;;;;;3.20;1.40;;;;;;;16.16;62.80;99374.97;10392794;28;20076;-61
2023/08/29 19:21:57;;;;;;;2.00;1.10;;;;;;;16.18;63.05;99367.75;10388208;28;20033;-62
2023/08/29 19:26:59;;;;;;;3.28;1.45;;;;;;;16.09;62.93;99373.88;10389052;28;20417;-61
2023/08/29 19:32:03;;;;;;;6.90;1.80;;;;;;;16.03;63.09;99374.44;10389756;28;20049;-60
2023/08/29 19:37:08;;;;;;;2.70;1.40;;;;;;;16.02;63.30;99370.13;10393188;28;20053;-61
2023/08/29 19:42:10;;;;;;;5.00;1.70;;;;;;;15.95;63.41;99370.81;10390698;28;20071;-59
2023/08/29 19:47:13;;;;;;;8.23;3.67;;;;;;;15.84;63.36;99374.44;10388848;28;20046;-61
2023/08/29 19:52:17;;;;;;;8.10;3.63;;;;;;;15.71;63.71;99365.13;10389653;28;20049;-61
2023/08/29 19:57:20;;;;;;;5.32;2.90;;;;;;;15.61;63.79;99369.56;10389311;28;20482;-61
2023/08/29 20:02:24;;;;;;;5.00;2.63;;;;;;;15.59;63.99;99364.41;10390081;28;20170;-61
2023/08/29 20:07:27;;;;;;;6.22;2.22;;;;;;;15.55;64.09;99363.00;10393153;28;20057;-62
2023/08/29 20:12:29;;;;;;;3.00;1.75;;;;;;;15.30;64.23;99353.81;10389702;28;20792;-59
2023/08/29 20:17:31;;;;;;;2.72;1.60;;;;;;;15.28;64.56;99361.00;10397362;28;20064;-59
2023/08/29 20:22:33;;;;;;;2.05;1.30;;;;;;;15.23;64.38;99346.56;10422914;28;20119;-61
2023/08/29 20:27:35;;;;;;;2.05;1.58;;;;;;;15.06;64.84;99349.84;10392258;28;20056;-61
2023/08/29 20:32:36;;;;;;;1.73;1.33;;;;;;;14.96;64.87;99344.53;10392513;28;20045;-61
2023/08/29 20:37:40;;;;;;;1.90;1.30;;;;;;;14.93;65.07;99347.44;10398470;28;20054;-61
2023/08/29 20:42:45;;;;;;;3.92;1.45;;;;;;;15.04;65.03;99351.78;10396180;28;20045;-61
2023/08/29 20:47:47;;;;;;;3.03;1.30;;;;;;;15.13;64.73;99356.22;10398169;28;20057;-60
2023/08/29 20:52:50;;;;;;;4.65;1.27;;;;;;;15.17;64.91;99352.34;10400832;28;20103;-61
2023/08/29 20:57:52;;;;;;;2.38;1.55;;;;;;;15.12;64.95;99344.03;10403572;28;20959;-61
2023/08/29 21:02:55;;;;;;;2.03;1.13;;;;;;;15.01;64.78;99344.97;10392447;28;20048;-61
2023/08/29 21:07:58;;;;;;;2.55;1.55;;;;;;;14.94;64.90;99345.66;10401508;28;20400;-61
2023/08/29 21:13:00;;;;;;;1.55;1.08;;;;;;;14.86;65.09;99341.03;10398842;28;20088;-61
2023/08/29 21:18:03;;;;;;;2.42;1.25;;;;;;;14.94;65.07;99337.75;10398856;28;20080;-61
2023/08/29 21:23:05;;;;;;;2.45;1.23;;;;;;;14.93;64.62;99331.66;10403286;28;20449;-61
2023/08/29 21:28:07;;;;;;;1.88;1.20;;;;;;;14.72;65.13;99333.50;10395472;28;20057;-62
2023/08/29 21:33:10;;;;;;;1.60;1.20;;;;;;;14.59;65.45;99332.91;10390152;28;20077;-61
2023/08/29 21:38:13;;;;;;;2.08;1.10;;;;;;;14.72;65.57;99332.66;10394399;28;20052;-60
2023/08/29 21:43:19;;;;;;;2.30;1.45;;;;;;;14.86;65.41;99327.06;10404349;28;20413;-60
2023/08/29 21:48:22;;;;;;;1.48;1.10;;;;;;;14.90;65.22;99329.28;10386381;28;20311;-60
2023/08/29 21:53:26;;;;;;;1.95;1.30;;;;;;;14.95;65.16;99327.09;10385445;28;20041;-60
2023/08/29 21:58:28;;;;;;;4.00;1.30;;;;;;;14.92;65.01;99316.00;10382720;28;21383;-60
2023/08/29 22:03:30;;;;;;;3.00;1.00;;;;;;;14.88;65.01;99317.22;10386965;28;20049;-61
2023/08/29 22:08:33;;;;;;;2.33;1.20;;;;;;;14.85;65.05;99314.84;10384734;28;20057;-60
2023/08/29 22:13:35;;;;;;;2.58;1.27;;;;;;;14.66;65.37;99310.34;10381367;28;20053;-60
2023/08/29 22:18:37;;;;;;;3.42;1.70;;;;;;;14.64;65.55;99316.69;10382033;28;20425;-60
2023/08/29 22:23:39;;;;;;;2.15;1.20;;;;;;;14.48;65.49;99320.63;10386598;28;20709;-60
2023/08/29 22:28:40;;;;;;;2.15;1.42;;;;;;;14.36;65.73;99311.13;10392144;28;20041;-60
2023/08/29 22:33:44;;;;;;;2.22;1.20;;;;;;;14.46;65.60;99303.28;10394044;28;20520;-60
2023/08/29 22:38:46;;;;;;;2.95;1.30;;;;;;;14.53;65.74;99289.50;10394923;28;20437;-61
2023/08/29 22:43:48;;;;;;;2.92;1.83;;;;;;;14.53;65.89;99281.59;10392345;28;20064;-60
2023/08/29 22:48:49;;;;;;;1.70;1.30;;;;;;;14.56;65.91;99277.88;10392950;28;20045;-61
2023/08/29 22:53:51;;;;;;;1.92;1.20;;;;;;;14.58;65.74;99283.84;10392592;28;20045;-60
2023/08/29 22:58:53;;;;;;;1.92;1.20;;;;;;;14.59;65.69;99290.78;10393225;28;20497;-61
2023/08/29 23:03:55;;;;;;;1.92;1.30;;;;;;;14.45;65.83;99286.66;10392598;28;20042;-60
2023/08/29 23:08:57;;;;;;;2.67;1.40;;;;;;;14.54;65.95;99283.28;10392317;28;20512;-61
2023/08/29 23:14:00;;;;;;;1.83;1.23;;;;;;;14.68;65.75;99289.97;10392035;28;20057;-61
2023/08/29 23:19:03;;;;;;;1.65;1.15;;;;;;;14.73;65.82;99289.59;10389146;28;20053;-61
2023/08/29 23:24:05;;;;;;;2.10;1.40;;;;;;;14.76;65.53;99284.06;10390904;28;20115;-61
2023/08/29 23:29:07;;;;;;;2.28;1.50;;;;;;;14.75;65.42;99277.97;10391707;28;20045;-61